Time;durP1;ratioP1;P1;durP2;ratioP2;P2;SDS_P1;SDS_P2;PMS_P1;PMS_P2;Temp;Humidity;BMP_temperature;BMP_pressure;BME280_temperature;BME280_humidity;BME280_pressure;Samples;Min_cycle;Max_cycle;Signal;HPM_P1;HPM_P2
2021/01/26 00:01:02;;;;;;;16.27;4.35;;;3.40;85.40;;;;;;5036125;28;20037;-74
2021/01/26 00:03:28;;;;;;;17.45;6.35;;;3.40;85.50;;;;;;5050538;28;20064;-73
2021/01/26 00:05:54;;;;;;;13.27;4.50;;;3.40;85.50;;;;;;5037428;28;20472;-73
2021/01/26 00:08:20;;;;;;;16.02;5.18;;;3.30;85.70;;;;;;5033696;28;20037;-73
2021/01/26 00:10:47;;;;;;;14.95;5.32;;;3.30;85.70;;;;;;5034166;28;20029;-74
2021/01/26 00:13:13;;;;;;;15.35;4.80;;;3.30;85.70;;;;;;5035056;28;21262;-73
2021/01/26 00:15:38;;;;;;;12.77;4.90;;;3.30;85.40;;;;;;5036237;28;20120;-73
2021/01/26 00:18:05;;;;;;;14.10;4.80;;;3.30;85.40;;;;;;5037615;28;20268;-73
2021/01/26 00:20:31;;;;;;;16.60;5.50;;;3.20;85.50;;;;;;5039716;28;20037;-73
2021/01/26 00:22:57;;;;;;;13.57;5.72;;;3.20;85.60;;;;;;5037169;28;20036;-74
2021/01/26 00:25:26;;;;;;;13.75;5.15;;;3.20;85.60;;;;;;5039958;28;20586;-76
2021/01/26 00:27:52;;;;;;;20.48;5.63;;;3.10;85.70;;;;;;5036737;28;20117;-72
2021/01/26 00:30:21;;;;;;;15.80;5.15;;;3.20;85.60;;;;;;5038151;28;20041;-75
2021/01/26 00:32:47;;;;;;;12.98;5.10;;;3.10;85.70;;;;;;5037514;28;20037;-73
2021/01/26 00:35:15;;;;;;;17.90;5.38;;;3.10;85.70;;;;;;5038700;28;20037;-74
2021/01/26 00:37:41;;;;;;;13.10;5.38;;;3.10;85.80;;;;;;5038993;28;20061;-77
2021/01/26 00:40:07;;;;;;;15.20;5.55;;;3.00;86.10;;;;;;5038205;28;20140;-76
2021/01/26 00:42:33;;;;;;;16.63;5.65;;;3.00;86.10;;;;;;5038530;28;20529;-74
2021/01/26 00:44:59;;;;;;;15.60;5.72;;;3.10;85.90;;;;;;5037791;28;20032;-74
2021/01/26 00:47:25;;;;;;;12.63;5.60;;;3.10;85.80;;;;;;5034330;28;20420;-73
2021/01/26 00:49:50;;;;;;;12.95;4.68;;;3.10;85.50;;;;;;5039558;28;20040;-74
2021/01/26 00:52:16;;;;;;;16.02;5.35;;;3.00;85.70;;;;;;5038219;28;20026;-76
2021/01/26 00:54:41;;;;;;;16.35;8.20;;;2.90;85.90;;;;;;5037818;28;20098;-72
2021/01/26 00:57:07;;;;;;;26.08;14.38;;;3.00;85.80;;;;;;5037800;28;20113;-74
2021/01/26 00:59:33;;;;;;;26.27;15.18;;;3.00;85.70;;;;;;5035724;28;20044;-72
2021/01/26 01:01:59;;;;;;;23.63;16.77;;;3.00;85.70;;;;;;5036871;28;20021;-73
2021/01/26 01:04:24;;;;;;;21.08;14.15;;;3.00;85.80;;;;;;5040251;28;20468;-73
2021/01/26 01:06:50;;;;;;;23.33;14.23;;;3.00;85.50;;;;;;5036646;28;20083;-76
2021/01/26 01:09:16;;;;;;;22.95;13.73;;;3.10;85.50;;;;;;5037885;28;20072;-74
2021/01/26 01:11:41;;;;;;;19.80;11.25;;;3.00;85.40;;;;;;5038581;28;20052;-74
2021/01/26 01:14:08;;;;;;;20.02;10.85;;;3.00;85.10;;;;;;5036047;28;20040;-74
2021/01/26 01:16:33;;;;;;;22.42;12.00;;;3.00;85.00;;;;;;5035845;28;20037;-73
2021/01/26 01:18:59;;;;;;;16.88;10.27;;;3.00;85.30;;;;;;5039027;28;20695;-75
2021/01/26 01:21:25;;;;;;;17.63;9.98;;;2.90;85.50;;;;;;5034069;28;20040;-74
2021/01/26 01:23:50;;;;;;;20.30;7.00;;;2.90;85.20;;;;;;5037736;28;20041;-76
2021/01/26 01:26:16;;;;;;;13.68;7.38;;;2.90;85.30;;;;;;5038343;28;20083;-76
2021/01/26 01:28:42;;;;;;;16.90;6.90;;;2.80;85.50;;;;;;5039869;28;20411;-73
2021/01/26 01:31:07;;;;;;;13.95;6.55;;;2.80;85.80;;;;;;5035586;28;20041;-73
2021/01/26 01:33:33;;;;;;;21.05;7.05;;;2.80;86.00;;;;;;5038277;28;20029;-74
2021/01/26 01:35:59;;;;;;;17.00;7.30;;;2.70;86.10;;;;;;5057347;28;20033;-76
2021/01/26 01:38:25;;;;;;;13.35;7.32;;;2.70;86.10;;;;;;5035190;28;20656;-75
2021/01/26 01:40:53;;;;;;;13.65;6.82;;;2.60;86.10;;;;;;5037378;28;20131;-73
2021/01/26 01:43:20;;;;;;;14.13;6.32;;;2.60;86.40;;;;;;5038175;28;20354;-74
2021/01/26 01:45:46;;;;;;;16.90;8.05;;;2.60;86.50;;;;;;5036781;28;20155;-72
2021/01/26 01:48:28;;;;;;;14.60;8.27;;;2.60;86.50;;;;;;5035828;28;20238;-73
2021/01/26 01:51:04;;;;;;;18.65;9.45;;;2.60;86.50;;;;;;5033305;28;20479;-73
2021/01/26 01:53:37;;;;;;;19.30;10.30;;;2.60;86.40;;;;;;5037829;28;20183;-73
2021/01/26 01:56:10;;;;;;;14.82;7.65;;;2.60;86.70;;;;;;5034281;28;20458;-72
2021/01/26 01:58:43;;;;;;;17.45;7.20;;;2.60;86.90;;;;;;5037817;28;20120;-73
2021/01/26 02:01:12;;;;;;;19.15;6.53;;;2.60;86.70;;;;;;5033141;28;20049;-72
2021/01/26 02:03:43;;;;;;;13.48;6.32;;;2.60;86.50;;;;;;5048902;28;20423;-73
2021/01/26 02:06:10;;;;;;;16.70;5.63;;;2.60;86.50;;;;;;5035134;28;20029;-72
2021/01/26 02:08:38;;;;;;;14.38;6.63;;;2.60;86.50;;;;;;5036674;28;20128;-74
2021/01/26 02:11:04;;;;;;;14.40;8.68;;;2.60;86.50;;;;;;5036252;28;20047;-74
2021/01/26 02:13:29;;;;;;;21.45;9.68;;;2.60;86.40;;;;;;5034535;28;20038;-75
2021/01/26 02:15:59;;;;;;;17.10;10.77;;;2.50;86.20;;;;;;5034737;28;20044;-73
2021/01/26 02:18:45;;;;;;;17.92;10.90;;;2.50;86.30;;;;;;5032010;28;20085;-73
2021/01/26 02:21:52;;;;;;;24.13;11.57;;;2.50;86.50;;;;;;5035458;28;20037;-74
2021/01/26 02:24:35;;;;;;;17.35;9.80;;;2.50;86.20;;;;;;5035456;28;20041;-74
2021/01/26 02:27:21;;;;;;;21.48;9.50;;;2.50;86.20;;;;;;5052454;28;20049;-74
2021/01/26 02:30:24;;;;;;;17.95;8.75;;;2.50;86.10;;;;;;5034086;28;20055;-72
2021/01/26 02:32:58;;;;;;;16.40;8.35;;;2.40;86.00;;;;;;5035996;28;20989;-74
2021/01/26 02:35:56;;;;;;;22.05;8.77;;;2.40;86.30;;;;;;5032878;28;20456;-73
2021/01/26 02:38:42;;;;;;;15.15;8.60;;;2.30;86.20;;;;;;5035646;28;20517;-74
2021/01/26 02:41:31;;;;;;;15.98;8.15;;;2.30;86.20;;;;;;5034369;28;20401;-73
2021/01/26 02:44:19;;;;;;;16.45;8.70;;;2.30;86.20;;;;;;5034695;28;20455;-74
2021/01/26 02:46:47;;;;;;;17.70;9.05;;;2.20;86.20;;;;;;5035865;28;20029;-74
2021/01/26 02:49:27;;;;;;;15.07;8.85;;;2.20;86.40;;;;;;5031931;28;20043;-74
2021/01/26 02:51:56;;;;;;;16.15;8.85;;;2.10;86.60;;;;;;5035351;28;20116;-73
2021/01/26 02:54:29;;;;;;;16.35;9.50;;;2.10;86.70;;;;;;5032614;28;20071;-73
2021/01/26 02:57:05;;;;;;;17.42;9.82;;;2.10;87.10;;;;;;5030031;28;20037;-74
2021/01/26 02:59:40;;;;;;;18.63;11.73;;;2.10;87.00;;;;;;5032613;28;20074;-74
2021/01/26 03:02:39;;;;;;;27.38;13.90;;;2.00;87.10;;;;;;5037876;28;20049;-74
2021/01/26 03:05:05;;;;;;;18.58;11.23;;;2.10;86.90;;;;;;5035014;28;20052;-76
2021/01/26 03:07:35;;;;;;;19.33;10.65;;;2.10;87.10;;;;;;5039318;28;20038;-74
2021/01/26 03:10:07;;;;;;;18.80;9.48;;;2.10;86.70;;;;;;5034727;28;20399;-74
2021/01/26 03:12:37;;;;;;;21.48;10.52;;;2.10;86.70;;;;;;5037810;28;20036;-74
2021/01/26 03:15:20;;;;;;;24.30;11.85;;;2.10;86.60;;;;;;5034391;28;20515;-74
2021/01/26 03:17:50;;;;;;;15.77;11.23;;;2.10;86.70;;;;;;5034048;28;20036;-75
2021/01/26 03:20:40;;;;;;;20.40;13.23;;;2.00;86.80;;;;;;5034414;28;20116;-74
2021/01/26 03:23:19;;;;;;;24.67;12.68;;;2.00;87.00;;;;;;5034639;28;20029;-74
2021/01/26 03:25:49;;;;;;;19.77;11.95;;;2.00;87.00;;;;;;5032811;28;20040;-74
2021/01/26 03:28:17;;;;;;;21.25;12.13;;;1.90;87.10;;;;;;5033228;28;20486;-73
2021/01/26 03:30:47;;;;;;;21.45;12.55;;;2.00;87.20;;;;;;5034673;28;20480;-74
2021/01/26 03:33:29;;;;;;;25.00;14.30;;;1.90;87.30;;;;;;5034307;28;20466;-73
2021/01/26 03:35:54;;;;;;;19.33;13.95;;;1.90;87.20;;;;;;5036786;28;20507;-74
2021/01/26 03:38:23;;;;;;;18.65;13.23;;;1.90;87.10;;;;;;5032607;28;20052;-75
2021/01/26 03:40:50;;;;;;;17.85;11.98;;;1.90;87.10;;;;;;5036778;28;20178;-73
2021/01/26 03:43:16;;;;;;;21.58;12.10;;;1.90;87.20;;;;;;5035930;28;20040;-74
2021/01/26 03:45:42;;;;;;;18.70;11.15;;;1.80;87.20;;;;;;5034809;28;20033;-73
2021/01/26 03:48:35;;;;;;;20.80;10.48;;;1.90;87.30;;;;;;5030699;28;20041;-74
2021/01/26 03:51:13;;;;;;;16.80;11.32;;;1.90;87.30;;;;;;5032173;28;20056;-76
2021/01/26 03:54:00;;;;;;;17.70;10.68;;;1.90;87.30;;;;;;5037335;28;20045;-74
2021/01/26 03:57:25;;;;;;;22.58;11.00;;;1.90;87.40;;;;;;5038315;28;20049;-74
2021/01/26 04:00:29;;;;;;;18.40;11.60;;;1.90;87.10;;;;;;5027087;28;20048;-73
2021/01/26 04:03:11;;;;;;;17.67;11.98;;;1.80;87.00;;;;;;5038486;28;20033;-73
2021/01/26 04:06:10;;;;;;;20.45;11.27;;;1.80;87.10;;;;;;5036468;28;20037;-75
2021/01/26 04:08:47;;;;;;;17.80;11.15;;;1.80;87.10;;;;;;5038476;28;20039;-74
2021/01/26 04:11:28;;;;;;;16.35;11.68;;;1.70;87.20;;;;;;5039474;28;20531;-73
2021/01/26 04:14:08;;;;;;;20.15;10.75;;;1.70;87.20;;;;;;5036310;28;20044;-75
2021/01/26 04:16:58;;;;;;;18.58;10.25;;;1.70;87.10;;;;;;5041492;28;20057;-73
2021/01/26 04:19:28;;;;;;;16.75;10.07;;;1.70;87.00;;;;;;5035380;28;20391;-75
2021/01/26 04:21:54;;;;;;;15.70;8.68;;;1.60;87.10;;;;;;5040482;28;20072;-73
2021/01/26 04:24:20;;;;;;;17.52;8.52;;;1.60;87.30;;;;;;5037622;28;20033;-74
2021/01/26 04:26:48;;;;;;;15.68;9.75;;;1.60;87.30;;;;;;5035025;28;20029;-74
2021/01/26 04:29:14;;;;;;;19.38;10.27;;;1.60;87.20;;;;;;5037278;28;20037;-77
2021/01/26 04:31:40;;;;;;;16.58;9.80;;;1.70;87.10;;;;;;5039335;28;20039;-73
2021/01/26 04:34:05;;;;;;;20.17;10.60;;;1.60;87.10;;;;;;5038595;28;20387;-74
2021/01/26 04:36:31;;;;;;;16.70;8.52;;;1.60;87.30;;;;;;5036763;28;20116;-75
2021/01/26 04:38:57;;;;;;;20.00;10.07;;;1.60;87.10;;;;;;5030637;28;20477;-74
2021/01/26 04:41:52;;;;;;;17.13;8.57;;;1.60;87.00;;;;;;5039012;28;20048;-74
2021/01/26 04:44:51;;;;;;;14.75;7.38;;;1.50;86.90;;;;;;5035296;28;20337;-73
2021/01/26 04:47:27;;;;;;;16.70;6.70;;;1.50;87.10;;;;;;5036060;28;20037;-74
2021/01/26 04:50:08;;;;;;;13.48;6.75;;;1.50;87.20;;;;;;5037999;28;20103;-73
2021/01/26 04:53:12;;;;;;;18.80;7.90;;;1.40;87.10;;;;;;5035643;28;20060;-72
2021/01/26 04:56:12;;;;;;;15.00;8.40;;;1.30;87.30;;;;;;5037562;28;20044;-73
2021/01/26 04:59:03;;;;;;;15.27;8.77;;;1.40;87.40;;;;;;5036516;28;20076;-74
2021/01/26 05:01:53;;;;;;;18.65;8.40;;;1.30;87.40;;;;;;5038018;28;20045;-73
2021/01/26 05:04:30;;;;;;;14.00;8.73;;;1.40;87.40;;;;;;5035349;28;20033;-75
2021/01/26 05:07:05;;;;;;;16.05;9.30;;;1.40;87.40;;;;;;5038716;28;20296;-72
2021/01/26 05:09:56;;;;;;;17.60;9.95;;;1.30;87.40;;;;;;5036642;28;20465;-74
2021/01/26 05:12:23;;;;;;;16.38;9.63;;;1.30;87.60;;;;;;5037268;28;20088;-75
2021/01/26 05:14:53;;;;;;;17.55;9.88;;;1.30;87.60;;;;;;5039163;28;20049;-75
2021/01/26 05:17:26;;;;;;;15.07;7.78;;;1.20;87.90;;;;;;5037691;28;20484;-75
2021/01/26 05:20:04;;;;;;;18.00;7.00;;;1.20;88.10;;;;;;5035520;28;20044;-75
2021/01/26 05:22:52;;;;;;;16.50;6.22;;;1.30;88.10;;;;;;5034538;28;20198;-73
2021/01/26 05:25:22;;;;;;;12.30;5.53;;;1.30;87.90;;;;;;5036237;28;20049;-74
2021/01/26 05:27:48;;;;;;;11.30;6.00;;;1.40;87.70;;;;;;5037800;28;20033;-73
2021/01/26 05:30:31;;;;;;;14.35;6.60;;;1.30;87.70;;;;;;5038616;28;20188;-75
2021/01/26 05:33:01;;;;;;;13.43;6.68;;;1.30;87.70;;;;;;5040678;28;20472;-73
2021/01/26 05:35:27;;;;;;;14.00;7.20;;;1.40;87.80;;;;;;5037486;28;20377;-74
2021/01/26 05:37:54;;;;;;;12.98;7.53;;;1.30;87.70;;;;;;5035519;28;20618;-73
2021/01/26 05:40:36;;;;;;;15.95;8.23;;;1.30;87.80;;;;;;5034042;28;20037;-73
2021/01/26 05:43:05;;;;;;;16.88;9.30;;;1.30;87.90;;;;;;5037371;28;20033;-74
2021/01/26 05:45:51;;;;;;;17.27;9.07;;;1.30;88.00;;;;;;5034565;28;20155;-76
2021/01/26 05:48:21;;;;;;;16.67;9.77;;;1.30;87.90;;;;;;5037068;28;20179;-74
2021/01/26 05:50:48;;;;;;;13.85;8.18;;;1.30;88.10;;;;;;5036558;28;20041;-73
2021/01/26 05:53:30;;;;;;;15.30;8.57;;;1.30;88.10;;;;;;5034767;28;20352;-73
2021/01/26 05:56:12;;;;;;;19.63;9.82;;;1.30;88.10;;;;;;5035937;28;20072;-74
2021/01/26 05:58:40;;;;;;;19.27;9.38;;;1.40;87.90;;;;;;5035209;28;20029;-73
2021/01/26 06:01:11;;;;;;;16.15;9.23;;;1.40;87.90;;;;;;5035013;28;20590;-73
2021/01/26 06:03:37;;;;;;;16.73;8.65;;;1.30;88.10;;;;;;5034634;28;20465;-73
2021/01/26 06:06:04;;;;;;;19.25;9.40;;;1.40;88.00;;;;;;5035792;28;20048;-75
2021/01/26 06:08:48;;;;;;;17.38;10.45;;;1.40;87.90;;;;;;5030933;28;20468;-75
2021/01/26 06:11:29;;;;;;;18.45;10.93;;;1.40;88.00;;;;;;5030420;28;20723;-74
2021/01/26 06:14:15;;;;;;;19.30;11.15;;;1.50;87.80;;;;;;5034582;28;21893;-73
2021/01/26 06:16:41;;;;;;;27.88;12.02;;;1.40;87.80;;;;;;5037539;28;20535;-74
2021/01/26 06:19:08;;;;;;;21.23;11.07;;;1.40;88.00;;;;;;5033825;28;20359;-74
2021/01/26 06:21:52;;;;;;;17.38;11.05;;;1.30;88.20;;;;;;5035716;28;20029;-75
2021/01/26 06:24:23;;;;;;;17.80;11.00;;;1.40;88.40;;;;;;5032380;28;20067;-73
2021/01/26 06:27:04;;;;;;;19.77;11.63;;;1.40;88.10;;;;;;5034034;28;20029;-75
2021/01/26 06:29:37;;;;;;;19.55;11.48;;;1.40;88.10;;;;;;5035997;28;20044;-73
2021/01/26 06:32:28;;;;;;;18.00;10.63;;;1.40;88.10;;;;;;5034204;28;20656;-74
2021/01/26 06:35:06;;;;;;;15.52;9.38;;;1.40;88.10;;;;;;5035716;28;20106;-75
2021/01/26 06:37:54;;;;;;;18.90;10.13;;;1.40;88.10;;;;;;5035223;28;20106;-73
2021/01/26 06:40:37;;;;;;;15.50;10.50;;;1.40;88.10;;;;;;5034861;28;20048;-74
2021/01/26 06:43:18;;;;;;;18.02;10.75;;;1.40;88.00;;;;;;5047559;28;20422;-75
2021/01/26 06:46:11;;;;;;;14.85;10.65;;;1.40;88.00;;;;;;5036121;28;20457;-75
2021/01/26 06:48:43;;;;;;;15.43;10.10;;;1.40;87.90;;;;;;5037027;28;20499;-73
2021/01/26 06:51:33;;;;;;;16.90;10.20;;;1.30;87.90;;;;;;5036952;28;20071;-74
2021/01/26 06:54:27;;;;;;;17.23;10.40;;;1.20;88.10;;;;;;5034803;28;20049;-74
2021/01/26 06:57:01;;;;;;;19.92;8.73;;;1.20;88.20;;;;;;5036204;28;20164;-74
2021/01/26 06:59:49;;;;;;;16.33;9.10;;;1.10;88.40;;;;;;5035898;28;20164;-74
2021/01/26 07:02:30;;;;;;;12.32;7.65;;;1.10;88.50;;;;;;5034102;28;20484;-74
2021/01/26 07:05:29;;;;;;;17.40;8.48;;;1.10;88.60;;;;;;5034080;28;20045;-74
2021/01/26 07:08:13;;;;;;;19.92;8.48;;;1.10;88.70;;;;;;5036842;28;20115;-73
2021/01/26 07:10:54;;;;;;;16.33;8.27;;;1.10;88.90;;;;;;5036528;28;20075;-69
2021/01/26 07:13:55;;;;;;;17.88;8.70;;;1.10;89.00;;;;;;5033135;28;20044;-70
2021/01/26 07:16:57;;;;;;;19.15;8.10;;;1.10;89.00;;;;;;5031975;28;20079;-69
2021/01/26 07:19:50;;;;;;;19.98;8.48;;;1.00;89.10;;;;;;5033220;28;20029;-71
2021/01/26 07:22:22;;;;;;;19.95;9.38;;;1.10;89.10;;;;;;5032050;28;20090;-70
2021/01/26 07:24:58;;;;;;;16.42;9.27;;;1.00;89.10;;;;;;5036586;28;20128;-69
2021/01/26 07:27:42;;;;;;;24.13;12.02;;;1.00;89.30;;;;;;5031513;28;20141;-69
2021/01/26 07:30:14;;;;;;;18.52;10.57;;;1.00;89.40;;;;;;5033937;28;20033;-72
2021/01/26 07:32:50;;;;;;;20.02;11.82;;;1.00;89.20;;;;;;5034933;28;20040;-70
2021/01/26 07:35:49;;;;;;;20.27;11.88;;;1.00;89.20;;;;;;5036104;28;20042;-69
2021/01/26 07:38:43;;;;;;;19.67;11.90;;;1.00;89.30;;;;;;5034407;28;20059;-69
2021/01/26 07:41:22;;;;;;;13.18;9.88;;;0.90;89.30;;;;;;5035836;28;20472;-70
2021/01/26 07:43:58;;;;;;;17.50;9.25;;;1.00;89.30;;;;;;5036621;28;20029;-69
2021/01/26 07:46:31;;;;;;;13.57;7.28;;;1.00;89.30;;;;;;5040162;28;20049;-69
2021/01/26 07:49:10;;;;;;;16.92;6.60;;;1.00;89.20;;;;;;5035364;28;20487;-69
2021/01/26 07:51:52;;;;;;;21.75;7.50;;;0.90;89.20;;;;;;5037004;28;20091;-71
2021/01/26 07:54:28;;;;;;;14.63;7.10;;;0.90;89.10;;;;;;5034913;28;20045;-69
2021/01/26 07:56:58;;;;;;;12.60;7.28;;;0.90;89.10;;;;;;5035510;28;20463;-71
2021/01/26 07:59:28;;;;;;;17.40;8.50;;;0.90;89.10;;;;;;5033954;28;20114;-70
2021/01/26 08:01:57;;;;;;;17.02;8.45;;;0.90;89.20;;;;;;5034927;28;20041;-71
2021/01/26 08:04:24;;;;;;;15.45;8.35;;;1.00;89.20;;;;;;5034753;28;20116;-68
2021/01/26 08:06:59;;;;;;;16.70;8.68;;;1.00;89.10;;;;;;5036704;28;20515;-68
2021/01/26 08:09:39;;;;;;;12.95;8.75;;;1.00;89.10;;;;;;5032786;28;21581;-70
2021/01/26 08:12:13;;;;;;;19.42;8.93;;;1.10;89.10;;;;;;5034901;28;20033;-69
2021/01/26 08:14:51;;;;;;;20.30;9.18;;;1.10;89.20;;;;;;5033329;28;20055;-68
2021/01/26 08:17:34;;;;;;;18.70;9.85;;;1.10;89.20;;;;;;5033064;28;20053;-68
2021/01/26 08:20:05;;;;;;;16.52;9.52;;;1.10;89.20;;;;;;5037189;28;20560;-70
2021/01/26 08:22:37;;;;;;;17.98;10.02;;;1.20;89.10;;;;;;5038619;28;20234;-69
2021/01/26 08:25:05;;;;;;;13.73;8.38;;;1.20;89.10;;;;;;5029528;28;20087;-69
2021/01/26 08:27:53;;;;;;;18.63;10.00;;;1.30;89.00;;;;;;5027855;28;20041;-69
2021/01/26 08:30:51;;;;;;;16.60;8.13;;;1.30;88.90;;;;;;5034352;28;20740;-69
2021/01/26 08:33:25;;;;;;;14.98;8.57;;;1.40;88.80;;;;;;5019433;28;20041;-69
2021/01/26 08:36:23;;;;;;;14.57;7.55;;;1.40;88.60;;;;;;5032966;28;20102;-69
2021/01/26 08:38:59;;;;;;;17.00;8.15;;;1.50;88.60;;;;;;5046735;28;20136;-70
2021/01/26 08:41:37;;;;;;;13.60;6.97;;;1.60;88.40;;;;;;5037580;28;20765;-69
2021/01/26 08:44:27;;;;;;;14.00;7.68;;;1.60;88.20;;;;;;5033674;28;20038;-71
2021/01/26 08:46:54;;;;;;;14.63;7.75;;;1.70;88.00;;;;;;5024228;28;20037;-70
2021/01/26 08:49:23;;;;;;;15.05;7.85;;;1.70;87.80;;;;;;5024237;28;20064;-71
2021/01/26 08:51:49;;;;;;;14.55;7.80;;;1.80;87.70;;;;;;5024924;28;20029;-71
2021/01/26 08:54:44;;;;;;;18.75;8.10;;;1.90;87.60;;;;;;5023047;28;20044;-71
2021/01/26 08:57:43;;;;;;;15.38;8.32;;;1.90;87.60;;;;;;5030201;28;20098;-71
2021/01/26 09:00:14;;;;;;;15.30;7.95;;;2.00;87.40;;;;;;5026845;28;20055;-73
2021/01/26 09:02:51;;;;;;;16.63;8.52;;;2.00;87.30;;;;;;5025537;28;20058;-72
2021/01/26 09:05:35;;;;;;;17.80;9.15;;;2.10;87.20;;;;;;5027844;28;20065;-71
2021/01/26 09:08:05;;;;;;;16.48;8.95;;;2.30;87.10;;;;;;5022869;28;20361;-70
2021/01/26 09:10:51;;;;;;;15.27;9.32;;;2.50;86.90;;;;;;5026909;28;20385;-72
2021/01/26 09:13:34;;;;;;;13.80;8.73;;;2.70;86.10;;;;;;5021917;28;20029;-72
2021/01/26 09:16:11;;;;;;;15.00;8.60;;;2.90;85.30;;;;;;5026581;28;20035;-71
2021/01/26 09:18:38;;;;;;;15.65;8.13;;;3.10;85.00;;;;;;5022154;28;20028;-72
2021/01/26 09:21:07;;;;;;;12.48;7.22;;;3.20;84.00;;;;;;5027915;28;20033;-71
2021/01/26 09:23:34;;;;;;;12.60;7.57;;;3.30;83.70;;;;;;5026452;28;20040;-70
2021/01/26 09:26:13;;;;;;;13.25;7.05;;;3.50;83.40;;;;;;5025111;28;20112;-70
2021/01/26 09:28:41;;;;;;;13.48;7.47;;;3.60;82.70;;;;;;5026080;28;20169;-73
2021/01/26 09:31:09;;;;;;;14.65;7.70;;;3.70;82.60;;;;;;5025855;28;20052;-71
2021/01/26 09:33:35;;;;;;;12.57;6.88;;;3.70;82.00;;;;;;5025982;28;20068;-69
2021/01/26 09:36:01;;;;;;;15.52;7.75;;;3.90;82.50;;;;;;5023228;28;20173;-71
2021/01/26 09:38:44;;;;;;;15.40;7.80;;;3.90;81.60;;;;;;5024269;28;20071;-71
2021/01/26 09:41:18;;;;;;;15.35;8.55;;;4.10;81.60;;;;;;5025705;28;20048;-70
2021/01/26 09:43:46;;;;;;;12.23;7.30;;;4.20;81.50;;;;;;5023468;28;20364;-72
2021/01/26 09:46:25;;;;;;;16.30;8.38;;;4.20;81.60;;;;;;5024326;28;20336;-69
2021/01/26 09:48:54;;;;;;;14.32;8.00;;;4.40;81.20;;;;;;5024761;28;20116;-70
2021/01/26 09:51:27;;;;;;;15.32;8.60;;;4.50;80.80;;;;;;5023672;28;20045;-71
2021/01/26 09:54:03;;;;;;;14.52;8.77;;;4.60;81.00;;;;;;5023559;28;20037;-69
2021/01/26 09:56:31;;;;;;;15.68;8.48;;;4.60;81.00;;;;;;5025085;28;20053;-71
2021/01/26 09:58:58;;;;;;;15.80;8.43;;;4.70;80.50;;;;;;5023917;28;20196;-70
2021/01/26 10:01:24;;;;;;;17.70;8.68;;;4.70;80.60;;;;;;5025515;28;20041;-71
2021/01/26 10:03:57;;;;;;;13.70;7.88;;;4.70;80.20;;;;;;5025906;28;20396;-71
2021/01/26 10:06:23;;;;;;;14.75;8.65;;;4.60;80.60;;;;;;5023442;28;20586;-72
2021/01/26 10:08:49;;;;;;;17.45;8.00;;;4.70;81.10;;;;;;5021667;28;20022;-72
2021/01/26 10:11:18;;;;;;;14.73;8.10;;;4.70;81.10;;;;;;5017270;28;20021;-71
2021/01/26 10:13:48;;;;;;;14.65;8.43;;;4.80;81.10;;;;;;5034539;28;20072;-71
2021/01/26 10:16:37;;;;;;;15.20;8.77;;;4.80;81.20;;;;;;5022574;28;20592;-70
2021/01/26 10:19:14;;;;;;;16.67;8.50;;;4.80;81.20;;;;;;5026118;28;20499;-71
2021/01/26 10:21:41;;;;;;;19.67;8.90;;;4.90;81.20;;;;;;5023734;28;20042;-71
2021/01/26 10:24:21;;;;;;;20.15;10.30;;;4.90;81.30;;;;;;5025732;28;20065;-70
2021/01/26 10:26:47;;;;;;;14.38;8.70;;;4.90;81.30;;;;;;5022606;28;20086;-70
2021/01/26 10:29:23;;;;;;;14.82;8.02;;;4.90;81.40;;;;;;5022183;28;20026;-72
2021/01/26 10:31:55;;;;;;;13.73;7.40;;;4.90;81.00;;;;;;5027069;28;21990;-72
2021/01/26 10:34:35;;;;;;;13.57;7.28;;;4.90;81.00;;;;;;5025232;28;20591;-71
2021/01/26 10:37:21;;;;;;;11.57;6.80;;;5.00;81.10;;;;;;5024165;28;20143;-72
2021/01/26 10:40:02;;;;;;;15.05;6.97;;;4.90;81.30;;;;;;5024403;28;20045;-72
2021/01/26 10:42:29;;;;;;;12.18;7.63;;;4.90;81.70;;;;;;5023252;28;20926;-70
2021/01/26 10:44:56;;;;;;;12.35;7.50;;;4.90;81.60;;;;;;5022729;28;20040;-71
2021/01/26 10:47:23;;;;;;;13.30;7.43;;;4.90;81.60;;;;;;5024259;28;20102;-69
2021/01/26 10:49:55;;;;;;;12.57;7.30;;;4.80;81.70;;;;;;5025111;28;20098;-69
2021/01/26 10:52:48;;;;;;;22.40;8.55;;;4.80;82.10;;;;;;5020797;28;20048;-69
2021/01/26 10:55:17;;;;;;;16.27;8.93;;;4.90;82.20;;;;;;5028189;28;20611;-68
2021/01/26 10:57:44;;;;;;;14.38;8.32;;;5.00;82.10;;;;;;5025862;28;20033;-68
2021/01/26 11:00:15;;;;;;;15.68;8.10;;;5.10;81.60;;;;;;5022947;28;20037;-71
2021/01/26 11:02:41;;;;;;;17.95;8.13;;;5.10;81.50;;;;;;5028082;28;20171;-70
2021/01/26 11:05:10;;;;;;;14.15;7.35;;;5.10;81.50;;;;;;5026711;28;20028;-70
2021/01/26 11:07:35;;;;;;;15.38;7.78;;;5.10;81.30;;;;;;5023626;28;20128;-71
2021/01/26 11:10:04;;;;;;;14.50;7.85;;;5.20;81.00;;;;;;5023523;28;20230;-71
2021/01/26 11:12:30;;;;;;;11.75;7.50;;;5.10;80.60;;;;;;5025341;28;20092;-71
2021/01/26 11:14:56;;;;;;;12.68;8.02;;;5.20;80.30;;;;;;5022730;28;20068;-71
2021/01/26 11:17:22;;;;;;;12.98;8.15;;;5.30;79.90;;;;;;5023085;28;20033;-70
2021/01/26 11:19:48;;;;;;;16.50;7.55;;;5.30;79.90;;;;;;5023796;28;20033;-71
2021/01/26 11:22:15;;;;;;;13.90;8.43;;;5.40;79.90;;;;;;5023979;28;20647;-73
2021/01/26 11:24:42;;;;;;;12.68;7.22;;;5.60;79.90;;;;;;5021774;28;20733;-70
2021/01/26 11:27:08;;;;;;;14.35;7.38;;;5.70;78.30;;;;;;5023947;28;20061;-72
2021/01/26 11:29:34;;;;;;;14.45;7.15;;;5.80;78.70;;;;;;5024707;28;20061;-72
2021/01/26 11:31:59;;;;;;;12.10;6.25;;;5.90;77.60;;;;;;5022980;28;20162;-71
2021/01/26 11:34:25;;;;;;;17.17;6.85;;;6.10;77.20;;;;;;5030937;28;20037;-68
2021/01/26 11:36:51;;;;;;;14.25;6.68;;;6.20;76.40;;;;;;5034511;28;20457;-69
2021/01/26 11:39:16;;;;;;;15.88;6.65;;;6.30;76.00;;;;;;5034803;28;20458;-70
2021/01/26 11:41:42;;;;;;;11.15;6.10;;;6.20;76.30;;;;;;5031374;28;20029;-70
2021/01/26 11:44:08;;;;;;;12.88;6.15;;;6.20;76.50;;;;;;5034075;28;21665;-72
2021/01/26 11:46:33;;;;;;;12.88;5.38;;;6.30;76.00;;;;;;5034422;28;20048;-70
2021/01/26 11:48:59;;;;;;;13.55;6.60;;;6.30;76.00;;;;;;5032786;28;20060;-70
2021/01/26 11:51:25;;;;;;;14.48;6.88;;;6.30;75.30;;;;;;5032530;28;20380;-69
2021/01/26 11:53:51;;;;;;;13.40;6.10;;;6.20;75.10;;;;;;5035291;28;20037;-69
2021/01/26 11:56:19;;;;;;;11.25;6.25;;;6.30;75.10;;;;;;5030475;28;20045;-69
2021/01/26 11:58:45;;;;;;;13.25;5.75;;;6.50;75.80;;;;;;5033045;28;20033;-69
2021/01/26 12:01:10;;;;;;;11.40;5.65;;;6.70;75.50;;;;;;5033780;28;20037;-71
2021/01/26 12:03:36;;;;;;;15.73;7.15;;;6.90;74.80;;;;;;5033758;28;20052;-68
2021/01/26 12:06:02;;;;;;;16.83;5.43;;;6.80;74.10;;;;;;5035238;28;20150;-69
2021/01/26 12:08:28;;;;;;;12.07;5.75;;;6.80;74.90;;;;;;5034739;28;20071;-68
2021/01/26 12:10:54;;;;;;;13.68;6.95;;;6.90;74.80;;;;;;5035388;28;20045;-71
2021/01/26 12:13:20;;;;;;;13.18;5.70;;;7.00;75.10;;;;;;5034697;28;20033;-68
2021/01/26 12:15:46;;;;;;;11.43;5.47;;;7.10;74.70;;;;;;5038210;28;20066;-69
2021/01/26 12:18:12;;;;;;;9.73;5.10;;;7.20;74.40;;;;;;5032586;28;20452;-69
2021/01/26 12:20:38;;;;;;;11.25;5.55;;;7.10;74.80;;;;;;5037651;28;20033;-70
2021/01/26 12:23:04;;;;;;;11.90;5.38;;;7.00;74.80;;;;;;5039587;28;20037;-70
2021/01/26 12:25:31;;;;;;;13.98;6.25;;;6.80;74.80;;;;;;5038222;28;20119;-69
2021/01/26 12:27:57;;;;;;;11.18;5.28;;;6.70;75.70;;;;;;5037439;28;20045;-73
2021/01/26 12:30:23;;;;;;;10.05;5.68;;;6.60;76.40;;;;;;5041903;28;20066;-69
2021/01/26 12:32:49;;;;;;;11.45;5.50;;;6.60;76.70;;;;;;5041268;28;20040;-69
2021/01/26 12:35:23;;;;;;;11.70;5.40;;;6.60;76.90;;;;;;5040740;28;20400;-68
2021/01/26 12:37:49;;;;;;;11.13;5.70;;;6.60;77.30;;;;;;5050687;28;20594;-68
2021/01/26 12:40:15;;;;;;;10.65;5.30;;;6.80;77.40;;;;;;5036487;28;20533;-71
2021/01/26 12:42:41;;;;;;;11.15;5.85;;;6.80;77.50;;;;;;5039496;28;20045;-69
2021/01/26 12:45:08;;;;;;;9.50;5.38;;;6.90;77.40;;;;;;5039229;28;20527;-70
2021/01/26 12:47:34;;;;;;;10.00;5.55;;;6.90;77.60;;;;;;5034592;28;20051;-70
2021/01/26 12:50:00;;;;;;;11.85;5.60;;;6.80;77.60;;;;;;5036306;28;20037;-70
2021/01/26 12:52:26;;;;;;;10.18;5.93;;;7.00;77.80;;;;;;5036838;28;20059;-69
2021/01/26 12:54:51;;;;;;;10.85;5.30;;;6.90;77.30;;;;;;5036163;28;20179;-70
2021/01/26 12:57:17;;;;;;;11.13;5.85;;;7.00;77.50;;;;;;5038897;28;20067;-70
2021/01/26 12:59:43;;;;;;;15.65;5.53;;;7.00;77.10;;;;;;5035281;28;20041;-69
2021/01/26 13:02:09;;;;;;;12.75;6.30;;;7.00;77.50;;;;;;5036878;28;20048;-71
2021/01/26 13:04:34;;;;;;;10.25;5.80;;;6.90;77.80;;;;;;5045435;28;20033;-69
2021/01/26 13:07:00;;;;;;;13.43;5.90;;;6.80;77.90;;;;;;5048537;28;20128;-69
2021/01/26 13:09:26;;;;;;;9.75;5.53;;;6.60;77.90;;;;;;5036225;28;20041;-69
2021/01/26 13:11:51;;;;;;;9.27;5.82;;;6.50;78.50;;;;;;5053481;28;20041;-68
2021/01/26 13:14:17;;;;;;;9.80;5.75;;;6.40;78.50;;;;;;5036979;28;20484;-70
2021/01/26 13:16:43;;;;;;;11.15;5.90;;;6.30;79.00;;;;;;5037373;28;20410;-68
2021/01/26 13:19:08;;;;;;;9.85;5.07;;;6.20;78.90;;;;;;5038238;28;20132;-69